Time;durP1;ratioP1;P1;durP2;ratioP2;P2;SDS_P1;SDS_P2;PMS_P1;PMS_P2;Temp;Humidity;BMP_temperature;BMP_pressure;BME280_temperature;BME280_humidity;BME280_pressure;Samples;Min_cycle;Max_cycle;Signal;HPM_P1;HPM_P2
2021/04/06 00:01:34;;;;;;;39.40;7.28;;;2.30;99.90;;;;;;5030155;28;20108;-78
2021/04/06 00:04:02;;;;;;;40.83;6.20;;;2.30;99.90;;;;;;5045870;28;20052;-78
2021/04/06 00:06:28;;;;;;;27.10;4.90;;;2.20;99.90;;;;;;5031472;28;20525;-78
2021/04/06 00:08:56;;;;;;;32.10;6.30;;;2.10;99.90;;;;;;5030975;28;20537;-78
2021/04/06 00:11:23;;;;;;;31.40;6.05;;;2.00;99.90;;;;;;5046714;28;20068;-78
2021/04/06 00:13:49;;;;;;;36.80;6.80;;;2.00;99.90;;;;;;5030662;28;20034;-78
2021/04/06 00:16:15;;;;;;;39.30;6.25;;;2.00;99.90;;;;;;5031095;28;20026;-79
2021/04/06 00:18:42;;;;;;;47.10;6.93;;;2.00;99.90;;;;;;5031227;28;20025;-78
2021/04/06 00:21:09;;;;;;;36.85;7.00;;;2.00;99.90;;;;;;5031339;28;20022;-78
2021/04/06 00:23:37;;;;;;;45.25;7.30;;;2.00;99.90;;;;;;5031006;28;20500;-78
2021/04/06 00:26:03;;;;;;;39.15;5.13;;;2.00;99.90;;;;;;5029436;28;20033;-78
2021/04/06 00:28:34;;;;;;;64.97;7.15;;;2.00;99.90;;;;;;5029966;28;20035;-78
2021/04/06 00:31:02;;;;;;;52.40;8.75;;;2.00;99.90;;;;;;5033736;28;20478;-78
2021/04/06 00:33:31;;;;;;;63.80;6.63;;;2.10;99.90;;;;;;5050245;28;20041;-78
2021/04/06 00:35:58;;;;;;;32.13;6.80;;;2.20;99.90;;;;;;5033726;28;20053;-78
2021/04/06 00:38:27;;;;;;;60.65;6.85;;;2.20;99.90;;;;;;5035021;28;20032;-78
2021/04/06 00:40:57;;;;;;;52.10;7.32;;;2.30;99.90;;;;;;5033363;28;20199;-78
2021/04/06 00:43:35;;;;;;;43.00;7.07;;;2.30;99.90;;;;;;5034666;28;20109;-78
2021/04/06 00:46:03;;;;;;;37.53;6.32;;;2.30;99.90;;;;;;5034299;28;20072;-78
2021/04/06 00:48:31;;;;;;;37.65;6.50;;;2.30;99.90;;;;;;5034808;28;20026;-78
2021/04/06 00:51:18;;;;;;;47.15;6.90;;;2.40;99.90;;;;;;5034667;28;20473;-78
2021/04/06 00:54:02;;;;;;;48.13;6.35;;;2.40;99.90;;;;;;5033416;28;20021;-78
2021/04/06 00:56:42;;;;;;;45.22;5.80;;;2.50;99.90;;;;;;5034631;28;20777;-78
2021/04/06 00:59:12;;;;;;;37.45;4.72;;;2.50;99.90;;;;;;5033536;28;20022;-78
2021/04/06 01:01:43;;;;;;;44.47;6.10;;;2.50;99.90;;;;;;5034582;28;20483;-78
2021/04/06 01:31:06;;;;;;;36.95;5.32;;;2.00;99.90;;;;;;5025050;28;20044;-78
2021/04/06 01:33:33;;;;;;;44.08;6.00;;;1.90;99.90;;;;;;5033936;28;20027;-78
2021/04/06 01:36:05;;;;;;;26.13;5.82;;;1.90;99.90;;;;;;5033050;28;20779;-78
2021/04/06 01:38:33;;;;;;;28.67;5.50;;;1.80;99.90;;;;;;5033837;28;20044;-78
2021/04/06 01:41:01;;;;;;;31.85;4.20;;;1.80;99.90;;;;;;5032680;28;20013;-78
2021/04/06 01:43:30;;;;;;;40.85;5.90;;;1.70;99.90;;;;;;5033050;28;20029;-78
2021/04/06 01:46:02;;;;;;;34.30;4.57;;;1.70;99.90;;;;;;5033111;28;20049;-78
2021/04/06 01:48:32;;;;;;;27.63;4.28;;;1.70;99.90;;;;;;5032418;28;20022;-78
2021/04/06 01:50:58;;;;;;;30.33;4.82;;;1.70;99.90;;;;;;5031826;28;20392;-78
2021/04/06 01:53:24;;;;;;;35.30;5.45;;;1.70;99.90;;;;;;5033517;28;20033;-78
2021/04/06 01:56:03;;;;;;;36.72;5.57;;;1.70;99.90;;;;;;5047997;28;20091;-78
2021/04/06 01:58:30;;;;;;;31.60;4.72;;;1.80;99.90;;;;;;5033256;28;20029;-78
2021/04/06 02:04:04;;;;;;;29.90;4.72;;;1.90;99.90;;;;;;5033026;28;20473;-78
2021/04/06 02:06:33;;;;;;;47.42;6.20;;;2.00;99.90;;;;;;5033282;28;20112;-78
2021/04/06 02:08:59;;;;;;;27.55;4.07;;;2.20;99.90;;;;;;5032949;28;20033;-78
2021/04/06 02:11:27;;;;;;;18.75;2.58;;;2.20;99.90;;;;;;5033161;28;20033;-78
2021/04/06 02:14:03;;;;;;;22.60;3.05;;;2.10;99.90;;;;;;5032279;28;20607;-78
2021/04/06 02:16:52;;;;;;;15.00;4.05;;;1.80;99.90;;;;;;5031919;28;20048;-78
2021/04/06 02:19:38;;;;;;;24.75;2.55;;;1.60;99.90;;;;;;5048086;28;20021;-78
2021/04/06 02:22:17;;;;;;;14.95;3.33;;;1.40;99.90;;;;;;5031601;28;20025;-78
2021/04/06 02:24:50;;;;;;;16.20;2.58;;;1.30;99.90;;;;;;5032162;28;20075;-78
2021/04/06 02:27:25;;;;;;;;;;;1.30;99.90;;;;;;5033277;28;20476;-78
2021/04/06 02:30:00;;;;;;;27.42;3.63;;;1.30;99.90;;;;;;5032786;28;19905;-78
2021/04/06 02:32:28;;;;;;;26.70;2.72;;;1.40;99.90;;;;;;5032763;28;20056;-78
2021/04/06 02:34:56;;;;;;;31.23;4.57;;;1.60;99.90;;;;;;5030961;28;20052;-78
2021/04/06 02:37:26;;;;;;;23.00;3.78;;;1.60;99.90;;;;;;5032161;28;20017;-78
2021/04/06 02:39:54;;;;;;;17.65;3.13;;;1.50;99.90;;;;;;5031101;28;20099;-78
2021/04/06 02:42:25;;;;;;;27.15;3.00;;;1.50;99.90;;;;;;5032306;28;20025;-78
2021/04/06 02:45:05;;;;;;;34.50;3.22;;;1.40;99.90;;;;;;5030432;28;20618;-78
2021/04/06 02:47:31;;;;;;;21.05;5.35;;;1.40;99.90;;;;;;5032447;28;20500;-78
2021/04/06 02:49:57;;;;;;;31.85;4.03;;;1.30;99.90;;;;;;5031144;28;20075;-78
2021/04/06 02:52:25;;;;;;;29.60;3.85;;;1.30;99.90;;;;;;5031959;28;20025;-78
2021/04/06 02:54:51;;;;;;;31.70;4.90;;;1.20;99.90;;;;;;5029505;28;20026;-78
2021/04/06 02:57:23;;;;;;;38.15;4.03;;;1.10;99.90;;;;;;5031308;28;20025;-78
2021/04/06 02:59:50;;;;;;;30.67;4.67;;;1.20;99.90;;;;;;5047565;28;20033;-78
2021/04/06 03:02:16;;;;;;;32.10;4.43;;;1.10;99.90;;;;;;5032375;28;20395;-78
2021/04/06 03:04:43;;;;;;;27.02;4.10;;;1.20;99.90;;;;;;5029732;28;20017;-78
2021/04/06 03:07:17;;;;;;;30.40;5.05;;;1.40;99.90;;;;;;5032208;28;20017;-78
2021/04/06 03:10:08;;;;;;;;;;;1.50;99.90;;;;;;5032200;28;20075;-78
2021/04/06 03:12:34;;;;;;;35.75;4.40;;;1.60;99.90;;;;;;5030777;28;19905;-78
2021/04/06 03:15:03;;;;;;;38.38;6.22;;;1.70;99.90;;;;;;5031155;28;20033;-78
2021/04/06 03:17:49;;;;;;;38.10;5.28;;;1.70;99.90;;;;;;5032050;28;20029;-78
2021/04/06 03:20:15;;;;;;;48.25;5.70;;;1.70;99.90;;;;;;5047197;28;20394;-78
2021/04/06 03:22:42;;;;;;;48.08;4.57;;;1.70;99.90;;;;;;5031881;28;20021;-78
2021/04/06 03:25:09;;;;;;;37.45;5.32;;;1.70;99.90;;;;;;5030905;28;20060;-78
2021/04/06 03:27:35;;;;;;;40.10;4.30;;;1.70;99.90;;;;;;5031960;28;20030;-78
2021/04/06 03:30:02;;;;;;;34.75;5.05;;;1.80;99.90;;;;;;5031778;28;20124;-78
2021/04/06 03:32:28;;;;;;;42.88;5.40;;;2.00;99.90;;;;;;5031551;28;20037;-78
2021/04/06 03:34:54;;;;;;;32.38;4.60;;;1.90;99.90;;;;;;5030977;28;20033;-78
2021/04/06 03:37:21;;;;;;;34.50;4.10;;;1.90;99.90;;;;;;5031861;28;20022;-78
2021/04/06 03:39:47;;;;;;;29.27;5.50;;;1.80;99.90;;;;;;5031315;28;20065;-78
2021/04/06 03:42:24;;;;;;;24.58;4.00;;;1.70;99.90;;;;;;5031779;28;20022;-78
2021/04/06 03:44:50;;;;;;;27.17;3.25;;;1.60;99.90;;;;;;5030714;28;20494;-78
2021/04/06 03:47:16;;;;;;;17.38;2.30;;;1.60;99.90;;;;;;5031249;28;20035;-78
2021/04/06 03:49:48;;;;;;;15.77;2.47;;;1.70;99.90;;;;;;5031605;28;20033;-78
2021/04/06 03:52:15;;;;;;;16.38;2.58;;;1.60;99.90;;;;;;5031574;28;20177;-78
2021/04/06 03:54:48;;;;;;;7.85;3.53;;;1.60;99.90;;;;;;5030535;28;20433;-77
2021/04/06 03:57:39;;;;;;;15.93;2.50;;;1.60;99.90;;;;;;5031562;28;20023;-78
2021/04/06 04:00:09;;;;;;;15.35;2.78;;;1.60;99.90;;;;;;5031356;28;20208;-78
2021/04/06 04:02:35;;;;;;;20.00;3.67;;;1.30;99.90;;;;;;5030235;28;20505;-79
2021/04/06 04:05:01;;;;;;;13.70;2.63;;;1.10;99.90;;;;;;5031444;28;20037;-78
2021/04/06 04:07:27;;;;;;;17.05;2.70;;;1.00;99.90;;;;;;5035597;28;20064;-78
2021/04/06 04:09:52;;;;;;;30.85;3.40;;;0.90;99.90;;;;;;5033836;28;20429;-78
2021/04/06 04:12:18;;;;;;;21.30;2.47;;;0.90;99.90;;;;;;5035466;28;20068;-78
2021/04/06 04:14:44;;;;;;;12.30;1.98;;;0.90;99.90;;;;;;5034579;28;20465;-78
2021/04/06 04:17:10;;;;;;;11.55;1.80;;;0.80;99.90;;;;;;5034860;28;20021;-78
2021/04/06 04:19:36;;;;;;;15.35;2.58;;;0.80;99.90;;;;;;5035394;28;20029;-78
2021/04/06 04:22:02;;;;;;;14.43;2.17;;;0.80;99.90;;;;;;5034022;28;20018;-78
2021/04/06 04:24:28;;;;;;;14.82;2.58;;;0.80;99.90;;;;;;5034253;28;20033;-78
2021/04/06 04:26:53;;;;;;;14.43;2.25;;;0.70;99.90;;;;;;5035232;28;20036;-78
2021/04/06 04:29:19;;;;;;;14.82;2.60;;;0.70;99.90;;;;;;5035124;28;20025;-78
2021/04/06 04:31:47;;;;;;;15.98;3.50;;;0.70;99.90;;;;;;5035195;28;20137;-78
2021/04/06 04:34:12;;;;;;;25.02;3.20;;;0.70;99.90;;;;;;5034079;28;20378;-78
2021/04/06 04:36:38;;;;;;;23.23;2.70;;;0.60;99.90;;;;;;5035069;28;20033;-78
2021/04/06 04:39:05;;;;;;;13.57;3.25;;;0.50;99.90;;;;;;5034036;28;20029;-78
2021/04/06 04:41:31;;;;;;;16.77;2.58;;;0.40;99.90;;;;;;5033754;28;20084;-78
2021/04/06 04:43:57;;;;;;;22.10;2.53;;;0.40;99.90;;;;;;5034310;28;20057;-78
2021/04/06 04:46:22;;;;;;;20.83;3.55;;;0.40;99.90;;;;;;5033011;28;20398;-78
2021/04/06 04:48:48;;;;;;;19.65;3.60;;;0.40;99.90;;;;;;5033255;28;20033;-78
2021/04/06 04:51:14;;;;;;;11.63;3.20;;;0.50;99.90;;;;;;5034652;28;20506;-78
2021/04/06 04:53:40;;;;;;;23.08;2.80;;;0.70;99.90;;;;;;5032510;28;20050;-78
2021/04/06 04:56:06;;;;;;;21.23;3.83;;;0.80;99.90;;;;;;5034504;28;20132;-78
2021/04/06 04:58:31;;;;;;;24.13;3.85;;;1.00;99.90;;;;;;5034659;28;20068;-78
2021/04/06 05:00:57;;;;;;;30.90;5.47;;;1.10;99.90;;;;;;5034513;28;20041;-78
2021/04/06 05:03:22;;;;;;;25.63;3.42;;;1.20;99.90;;;;;;5034556;28;20022;-78
2021/04/06 05:05:49;;;;;;;22.33;3.75;;;1.20;99.90;;;;;;5032298;28;20040;-78
2021/04/06 05:08:14;;;;;;;20.65;3.15;;;1.20;99.90;;;;;;5033174;28;20025;-78
2021/04/06 05:10:40;;;;;;;27.95;3.10;;;1.20;99.90;;;;;;5034144;28;20038;-78
2021/04/06 05:13:05;;;;;;;21.83;3.47;;;1.30;99.90;;;;;;5034362;28;20379;-78
2021/04/06 05:15:32;;;;;;;24.38;3.92;;;1.30;99.90;;;;;;5033244;28;20491;-78
2021/04/06 05:17:58;;;;;;;22.10;3.25;;;1.30;99.90;;;;;;5034361;28;20022;-78
2021/04/06 05:20:24;;;;;;;24.15;3.50;;;1.50;99.90;;;;;;5032981;28;20431;-78
2021/04/06 05:22:50;;;;;;;34.50;3.65;;;1.60;99.90;;;;;;5034113;28;20030;-78
2021/04/06 05:25:17;;;;;;;34.20;3.92;;;1.60;99.90;;;;;;5032897;28;20049;-78
2021/04/06 05:27:43;;;;;;;24.83;2.65;;;1.60;99.90;;;;;;5034119;28;20018;-78
2021/04/06 05:30:10;;;;;;;23.42;3.72;;;1.60;99.90;;;;;;5032745;28;20124;-78
2021/04/06 05:32:36;;;;;;;34.20;4.32;;;1.60;99.90;;;;;;5033997;28;20029;-78
2021/04/06 05:35:02;;;;;;;40.45;4.03;;;1.60;99.90;;;;;;5033066;28;20032;-78
2021/04/06 05:37:27;;;;;;;38.17;4.28;;;1.60;99.90;;;;;;5033732;28;20509;-78
2021/04/06 05:39:53;;;;;;;30.20;3.90;;;1.60;99.90;;;;;;5032231;28;20025;-78
2021/04/06 05:42:19;;;;;;;26.00;4.07;;;1.60;99.90;;;;;;5034076;28;20028;-78
2021/04/06 05:44:46;;;;;;;35.35;4.80;;;1.60;99.90;;;;;;5033231;28;20022;-78
2021/04/06 05:47:34;;;;;;;31.80;3.83;;;1.60;99.90;;;;;;5032310;28;20051;-78
2021/04/06 05:50:01;;;;;;;17.98;2.60;;;1.60;99.90;;;;;;5033678;28;20022;-78
2021/04/06 05:52:31;;;;;;;18.05;2.45;;;1.60;99.90;;;;;;5032549;28;20065;-78
2021/04/06 05:54:59;;;;;;;11.02;1.65;;;1.70;99.90;;;;;;5032974;28;20149;-78
2021/04/06 05:57:25;;;;;;;7.95;1.83;;;1.70;99.90;;;;;;5033751;28;20024;-78
2021/04/06 05:59:51;;;;;;;2.95;0.90;;;1.60;99.90;;;;;;5033395;28;20029;-78
2021/04/06 06:02:17;;;;;;;9.10;1.13;;;1.50;99.90;;;;;;5033586;28;20395;-78
2021/04/06 06:04:43;;;;;;;7.30;1.25;;;1.40;99.90;;;;;;5032434;28;20032;-78
2021/04/06 06:07:08;;;;;;;11.70;1.27;;;1.30;99.90;;;;;;5032208;28;20087;-78
2021/04/06 06:09:35;;;;;;;8.93;2.13;;;1.20;99.90;;;;;;5033004;28;20080;-78
2021/04/06 06:12:12;;;;;;;16.70;3.15;;;1.10;99.90;;;;;;5033369;28;20029;-78
2021/04/06 06:14:42;;;;;;;17.77;2.10;;;1.20;99.90;;;;;;5032316;28;20063;-78
2021/04/06 06:17:21;;;;;;;13.82;2.30;;;1.20;99.90;;;;;;5033166;28;20033;-78
2021/04/06 06:19:49;;;;;;;10.77;2.22;;;1.10;99.90;;;;;;5033117;28;20029;-78
2021/04/06 06:22:29;;;;;;;20.65;3.08;;;1.10;99.90;;;;;;5033026;28;20017;-78
2021/04/06 06:25:05;;;;;;;28.05;2.25;;;1.20;99.90;;;;;;5032099;28;20034;-78
2021/04/06 06:27:35;;;;;;;15.23;2.50;;;1.20;99.90;;;;;;5032337;28;20022;-78
2021/04/06 06:30:24;;;;;;;13.95;2.65;;;1.20;99.90;;;;;;5031628;28;20025;-78
2021/04/06 06:33:18;;;;;;;12.13;2.50;;;1.10;99.90;;;;;;5032855;28;20496;-78
2021/04/06 06:35:48;;;;;;;27.08;2.85;;;1.20;99.90;;;;;;5031219;28;20163;-79
2021/04/06 06:38:19;;;;;;;25.17;3.05;;;1.20;99.90;;;;;;5048264;28;20476;-78
2021/04/06 06:40:47;;;;;;;17.02;2.20;;;1.30;99.90;;;;;;5031904;28;20026;-78
2021/04/06 06:43:14;;;;;;;20.70;2.15;;;1.30;99.90;;;;;;5031126;28;20037;-78
2021/04/06 06:45:41;;;;;;;15.77;2.08;;;1.40;99.90;;;;;;5031971;28;20061;-78
2021/04/06 06:48:07;;;;;;;13.82;2.70;;;1.50;99.90;;;;;;5031420;28;20116;-78
2021/04/06 06:50:46;;;;;;;24.77;2.13;;;1.70;99.90;;;;;;5032484;28;20025;-78
2021/04/06 06:53:12;;;;;;;22.35;2.70;;;2.00;99.90;;;;;;5032159;28;20477;-78
2021/04/06 06:55:37;;;;;;;17.65;3.00;;;2.20;99.90;;;;;;5031018;28;20087;-78
2021/04/06 06:58:05;;;;;;;37.03;3.83;;;2.40;99.90;;;;;;5032361;28;20549;-78
2021/04/06 07:00:31;;;;;;;17.05;4.75;;;2.70;99.90;;;;;;5031592;28;20474;-78
2021/04/06 07:02:56;;;;;;;23.42;3.22;;;2.90;99.90;;;;;;5027295;28;20037;-78
2021/04/06 07:05:27;;;;;;;36.95;4.95;;;3.10;99.90;;;;;;5046518;28;20056;-78
2021/04/06 07:08:03;;;;;;;25.48;3.38;;;3.20;99.90;;;;;;5032145;28;20075;-78
2021/04/06 07:10:35;;;;;;;19.90;2.60;;;3.20;99.90;;;;;;5031618;28;20030;-78
2021/04/06 07:13:10;;;;;;;18.88;3.42;;;3.30;99.90;;;;;;5031926;28;20048;-78
2021/04/06 07:15:38;;;;;;;13.75;1.80;;;3.20;99.90;;;;;;5029682;28;20079;-78
2021/04/06 07:18:14;;;;;;;13.07;2.85;;;3.00;99.90;;;;;;5031839;28;20104;-79
2021/04/06 07:20:43;;;;;;;9.25;1.98;;;2.90;99.90;;;;;;5031777;28;20022;-78
2021/04/06 07:23:12;;;;;;;10.25;1.92;;;2.80;99.90;;;;;;5031849;28;20073;-78
2021/04/06 07:25:41;;;;;;;16.55;2.38;;;2.80;99.90;;;;;;5030898;28;20029;-78
2021/04/06 07:28:07;;;;;;;18.05;3.05;;;3.10;99.90;;;;;;5031659;28;20478;-78
2021/04/06 07:30:32;;;;;;;8.05;1.63;;;3.40;99.90;;;;;;5031646;28;20029;-78
2021/04/06 07:33:00;;;;;;;9.63;2.58;;;3.20;99.90;;;;;;5031647;28;20083;-78
2021/04/06 07:35:26;;;;;;;19.98;2.38;;;2.50;99.90;;;;;;5031347;28;20028;-78
2021/04/06 07:37:52;;;;;;;20.77;3.13;;;2.10;99.90;;;;;;5032353;28;20018;-78
2021/04/06 07:40:20;;;;;;;16.23;2.42;;;1.80;99.90;;;;;;5029417;28;20453;-78
2021/04/06 07:42:47;;;;;;;17.45;2.13;;;1.70;99.90;;;;;;5028526;28;20516;-78
2021/04/06 07:45:21;;;;;;;25.88;4.25;;;1.70;99.90;;;;;;5021144;28;20025;-79
2021/04/06 07:47:48;;;;;;;10.13;2.22;;;1.70;99.90;;;;;;5029865;28;20037;-78
2021/04/06 07:50:32;;;;;;;16.88;2.03;;;1.70;99.90;;;;;;5030215;28;20029;-78
2021/04/06 07:53:18;;;;;;;23.23;3.05;;;1.70;99.90;;;;;;5031248;28;20030;-78
2021/04/06 07:55:44;;;;;;;8.75;1.80;;;1.70;99.90;;;;;;5030355;28;20098;-78
2021/04/06 07:58:09;;;;;;;14.70;2.35;;;1.70;99.90;;;;;;5031611;28;20110;-80
2021/04/06 08:00:49;;;;;;;15.40;2.22;;;1.90;99.90;;;;;;5031030;28;20034;-81
2021/04/06 08:03:46;;;;;;;13.57;3.28;;;2.10;99.90;;;;;;5029332;28;20021;-78
2021/04/06 08:06:18;;;;;;;16.65;3.42;;;2.30;99.90;;;;;;5031090;28;20452;-77
2021/04/06 08:08:44;;;;;;;14.30;2.80;;;2.80;99.90;;;;;;5030080;28;20026;-78
2021/04/06 08:11:09;;;;;;;10.57;2.00;;;3.00;99.90;;;;;;5046191;28;20268;-78
2021/04/06 08:13:35;;;;;;;23.48;2.33;;;3.30;99.90;;;;;;5019757;28;20034;-78
2021/04/06 08:16:17;;;;;;;17.38;2.22;;;3.50;99.90;;;;;;5009736;28;20034;-78
2021/04/06 08:18:50;;;;;;;21.70;3.10;;;3.70;99.90;;;;;;5024661;28;20018;-79
2021/04/06 08:21:17;;;;;;;15.85;2.78;;;3.80;99.90;;;;;;5024250;28;20021;-79
2021/04/06 08:23:45;;;;;;;18.35;2.97;;;3.90;99.90;;;;;;5030639;28;20042;-79
2021/04/06 08:26:31;;;;;;;24.65;4.15;;;4.00;99.90;;;;;;5030325;28;20386;-79
2021/04/06 08:29:27;;;;;;;28.80;3.03;;;4.00;99.90;;;;;;5028454;28;20041;-78
2021/04/06 08:32:16;;;;;;;22.48;2.75;;;4.20;99.90;;;;;;5011637;28;20491;-78
2021/04/06 08:34:54;;;;;;;25.55;4.28;;;4.30;99.90;;;;;;5015045;28;20037;-79
2021/04/06 08:37:35;;;;;;;16.15;2.85;;;4.40;99.90;;;;;;5029917;28;20030;-78
2021/04/06 08:40:06;;;;;;;22.83;2.95;;;4.00;99.90;;;;;;5029905;28;20025;-80
2021/04/06 08:42:33;;;;;;;17.35;3.15;;;3.80;99.90;;;;;;5031082;28;20084;-78
2021/04/06 08:45:00;;;;;;;13.25;2.10;;;3.80;99.90;;;;;;5029686;28;20551;-78
2021/04/06 08:47:45;;;;;;;16.00;4.45;;;4.20;99.90;;;;;;5030688;28;20086;-80
2021/04/06 08:50:19;;;;;;;14.50;2.08;;;4.70;99.90;;;;;;5029739;28;20057;-82
2021/04/06 08:52:46;;;;;;;11.43;2.38;;;5.20;99.90;;;;;;5033178;28;20026;-79
2021/04/06 08:55:14;;;;;;;9.45;1.58;;;5.20;99.90;;;;;;5033955;28;20029;-79
2021/04/06 08:57:40;;;;;;;14.98;2.15;;;4.40;99.90;;;;;;5034055;28;20026;-79
2021/04/06 09:00:11;;;;;;;12.55;2.30;;;3.80;99.90;;;;;;5034267;28;20108;-79
2021/04/06 09:02:37;;;;;;;7.78;1.65;;;3.50;99.90;;;;;;5013497;28;20068;-79
2021/04/06 09:05:03;;;;;;;8.77;2.00;;;3.30;99.90;;;;;;5013959;28;20014;-79
2021/04/06 09:07:31;;;;;;;8.30;1.92;;;3.10;99.90;;;;;;5028422;28;20386;-79
2021/04/06 09:10:01;;;;;;;6.93;2.13;;;2.90;99.90;;;;;;5034409;28;20029;-79
2021/04/06 09:12:34;;;;;;;8.70;1.80;;;2.80;99.90;;;;;;5034406;28;20029;-78
2021/04/06 09:15:01;;;;;;;13.20;2.33;;;2.80;99.90;;;;;;5033832;28;20026;-78
2021/04/06 09:17:29;;;;;;;10.00;1.67;;;2.80;99.90;;;;;;5032772;28;20029;-78
2021/04/06 09:19:55;;;;;;;20.30;2.20;;;2.90;99.90;;;;;;5033807;28;20363;-80
2021/04/06 09:22:21;;;;;;;7.25;1.52;;;2.80;99.90;;;;;;5033934;28;20024;-78
2021/04/06 09:24:47;;;;;;;19.67;2.40;;;2.80;99.90;;;;;;5032209;28;20045;-78
2021/04/06 09:27:12;;;;;;;16.92;2.33;;;2.80;99.90;;;;;;5034016;28;20025;-78
2021/04/06 09:29:45;;;;;;;11.73;2.78;;;2.90;99.90;;;;;;5032099;28;20037;-77
2021/04/06 09:32:14;;;;;;;21.65;2.85;;;2.90;99.90;;;;;;5032309;28;20076;-77
2021/04/06 09:34:45;;;;;;;14.27;2.60;;;2.90;99.90;;;;;;5033024;28;20044;-78
2021/04/06 09:37:13;;;;;;;15.38;2.45;;;2.90;99.90;;;;;;5033777;28;20025;-77
2021/04/06 09:39:42;;;;;;;16.05;3.20;;;2.80;99.90;;;;;;5033416;28;20028;-77
2021/04/06 09:42:09;;;;;;;13.88;1.83;;;2.40;99.90;;;;;;5033811;28;20025;-77
2021/04/06 09:44:38;;;;;;;8.77;1.40;;;2.00;99.90;;;;;;5033151;28;20030;-78
2021/04/06 09:47:12;;;;;;;9.48;1.55;;;1.60;99.90;;;;;;5033404;28;20101;-77
2021/04/06 09:49:40;;;;;;;2.75;1.05;;;1.50;99.90;;;;;;5033506;28;20120;-78
2021/04/06 09:52:13;;;;;;;4.60;1.27;;;1.50;99.90;;;;;;5030438;28;20064;-78
2021/04/06 09:54:43;;;;;;;7.53;1.60;;;1.70;99.90;;;;;;5022740;28;20489;-77
2021/04/06 09:57:10;;;;;;;7.60;1.35;;;2.10;99.90;;;;;;5005578;28;20049;-78
2021/04/06 09:59:43;;;;;;;11.50;1.90;;;2.50;99.90;;;;;;5013158;28;20109;-77
2021/04/06 10:02:17;;;;;;;9.60;1.42;;;3.20;99.90;;;;;;5022536;28;20029;-77
2021/04/06 10:04:47;;;;;;;11.32;1.48;;;3.70;99.90;;;;;;5007245;28;20556;-78
2021/04/06 10:07:23;;;;;;;21.33;2.97;;;4.10;99.90;;;;;;5009555;28;20030;-78
2021/04/06 10:09:50;;;;;;;19.25;2.17;;;4.60;99.90;;;;;;5008911;28;20382;-78
2021/04/06 10:12:17;;;;;;;16.20;2.00;;;4.70;99.90;;;;;;5013691;28;20029;-77
2021/04/06 10:14:44;;;;;;;13.00;2.90;;;4.90;99.90;;;;;;5007968;28;20057;-78
2021/04/06 10:17:16;;;;;;;14.95;2.28;;;4.80;99.90;;;;;;5011946;28;20060;-77
2021/04/06 10:19:45;;;;;;;15.30;3.30;;;4.70;99.90;;;;;;5008856;28;20057;-78
2021/04/06 10:22:16;;;;;;;23.25;2.92;;;5.00;99.90;;;;;;5014976;28;20036;-77
2021/04/06 10:24:44;;;;;;;15.27;2.70;;;5.00;99.90;;;;;;5012740;28;20049;-78
2021/04/06 10:27:17;;;;;;;28.20;2.80;;;5.00;99.90;;;;;;5026943;28;20551;-78
2021/04/06 10:29:44;;;;;;;22.98;2.83;;;5.20;99.90;;;;;;5028388;28;20033;-79
2021/04/06 10:32:25;;;;;;;25.75;2.58;;;5.20;99.90;;;;;;5026888;28;20041;-79
2021/04/06 10:34:52;;;;;;;19.98;2.80;;;5.00;99.90;;;;;;5027401;28;20030;-79
2021/04/06 10:37:19;;;;;;;20.15;2.85;;;4.60;99.90;;;;;;5028253;28;20076;-79
2021/04/06 10:39:45;;;;;;;27.98;2.88;;;4.40;99.90;;;;;;5026811;28;20026;-78
2021/04/06 10:42:13;;;;;;;17.60;2.10;;;4.30;99.90;;;;;;5022126;28;20030;-79
2021/04/06 10:44:41;;;;;;;16.58;3.03;;;4.60;99.90;;;;;;5030135;28;20046;-79
2021/04/06 10:47:07;;;;;;;15.75;2.45;;;4.80;99.90;;;;;;5030906;28;20029;-78
2021/04/06 10:49:34;;;;;;;21.63;3.00;;;4.90;99.90;;;;;;5032514;28;20025;-78
2021/04/06 10:52:07;;;;;;;29.58;3.50;;;4.90;99.90;;;;;;5031947;28;20397;-78
2021/04/06 10:54:33;;;;;;;11.80;2.37;;;5.20;99.90;;;;;;5031803;28;20030;-78
2021/04/06 10:56:59;;;;;;;21.42;2.90;;;5.60;99.90;;;;;;5032322;28;20264;-78
2021/04/06 10:59:37;;;;;;;27.50;3.92;;;6.30;99.90;;;;;;5032163;28;20026;-78
2021/04/06 11:02:04;;;;;;;21.67;3.47;;;6.10;99.90;;;;;;5031934;28;20084;-83
2021/04/06 11:04:37;;;;;;;30.40;3.25;;;5.60;99.90;;;;;;5031604;28;20071;-77
2021/04/06 11:07:05;;;;;;;30.63;4.15;;;5.30;99.90;;;;;;5032477;28;20037;-78
2021/04/06 11:09:37;;;;;;;19.92;2.42;;;5.80;99.90;;;;;;5032048;28;20039;-78
2021/04/06 11:12:04;;;;;;;17.35;3.13;;;6.30;99.90;;;;;;5031560;28;20029;-78
2021/04/06 11:14:31;;;;;;;6.97;1.38;;;6.30;99.90;;;;;;5030712;28;20433;-78
2021/04/06 11:17:00;;;;;;;14.05;2.47;;;6.20;99.90;;;;;;5030756;28;20529;-77
2021/04/06 11:19:32;;;;;;;8.00;2.58;;;6.40;99.90;;;;;;5031655;28;20603;-77
2021/04/06 11:22:05;;;;;;;18.58;2.80;;;6.50;99.90;;;;;;5031666;28;20104;-76
2021/04/06 11:24:32;;;;;;;23.50;4.53;;;6.40;99.90;;;;;;5030092;28;20026;-77
2021/04/06 11:26:59;;;;;;;25.00;4.68;;;6.60;99.90;;;;;;5031990;28;20021;-76
2021/04/06 11:29:28;;;;;;;37.25;9.98;;;6.50;99.90;;;;;;5030492;28;20033;-75
2021/04/06 11:31:57;;;;;;;13.45;4.15;;;5.90;99.90;;;;;;5031245;28;20040;-76
2021/04/06 11:34:24;;;;;;;8.05;2.13;;;5.40;99.90;;;;;;5031024;28;20497;-76
2021/04/06 11:36:50;;;;;;;10.02;2.95;;;4.80;99.90;;;;;;5031528;28;20030;-76
2021/04/06 11:39:18;;;;;;;6.78;1.20;;;5.10;99.90;;;;;;5031610;28;20034;-76
2021/04/06 11:41:48;;;;;;;9.43;1.52;;;5.70;99.90;;;;;;5030464;28;20025;-76
2021/04/06 11:44:15;;;;;;;15.70;3.85;;;5.90;99.90;;;;;;5030994;28;20028;-75
2021/04/06 11:46:41;;;;;;;14.57;4.20;;;6.30;99.90;;;;;;5030135;28;20047;-76
2021/04/06 11:49:09;;;;;;;12.70;2.55;;;6.90;99.90;;;;;;5030287;28;20109;-76
2021/04/06 11:51:35;;;;;;;7.13;1.42;;;7.60;99.90;;;;;;5031322;28;20088;-76
2021/04/06 11:54:01;;;;;;;22.45;4.35;;;8.00;99.90;;;;;;5030822;28;20040;-75
2021/04/06 11:56:26;;;;;;;11.63;2.13;;;8.20;99.90;;;;;;5031542;28;20473;-76
2021/04/06 11:58:52;;;;;;;11.98;1.98;;;8.00;99.90;;;;;;5030779;28;20032;-76
2021/04/06 12:01:18;;;;;;;14.77;1.95;;;7.30;99.90;;;;;;5030245;28;20486;-75
2021/04/06 12:03:43;;;;;;;17.05;2.25;;;6.80;99.90;;;;;;5030852;28;20095;-75
2021/04/06 12:06:09;;;;;;;23.35;1.88;;;6.20;99.90;;;;;;5029852;28;20029;-74
2021/04/06 12:08:35;;;;;;;12.18;1.80;;;5.50;99.90;;;;;;5031392;28;20534;-75
2021/04/06 12:11:01;;;;;;;21.55;3.53;;;5.20;99.90;;;;;;5031445;28;20075;-75
2021/04/06 12:13:28;;;;;;;23.17;3.22;;;5.00;99.90;;;;;;5031173;28;20159;-74
2021/04/06 12:15:54;;;;;;;24.30;2.72;;;4.70;99.90;;;;;;5030735;28;20022;-74
2021/04/06 12:18:20;;;;;;;20.70;2.53;;;4.50;99.90;;;;;;5030603;28;20136;-74
2021/04/06 12:20:45;;;;;;;18.30;2.55;;;4.60;99.90;;;;;;5031064;28;20148;-74
2021/04/06 12:23:11;;;;;;;15.73;2.22;;;4.70;99.90;;;;;;5029947;28;20386;-74
2021/04/06 12:25:36;;;;;;;15.65;3.78;;;4.60;99.90;;;;;;5029610;28;20087;-74
2021/04/06 12:28:02;;;;;;;8.13;1.45;;;4.30;99.90;;;;;;5034703;28;20048;-74
2021/04/06 12:30:29;;;;;;;2.70;0.88;;;4.70;99.90;;;;;;5035156;28;20030;-74
2021/04/06 12:32:55;;;;;;;6.25;1.95;;;5.10;99.90;;;;;;5035107;28;20075;-74
2021/04/06 12:35:21;;;;;;;18.35;3.70;;;5.50;99.90;;;;;;5034492;28;20017;-74
2021/04/06 12:37:46;;;;;;;3.30;0.77;;;5.90;99.90;;;;;;5034417;28;20109;-74
2021/04/06 12:40:12;;;;;;;2.53;0.70;;;6.20;99.90;;;;;;5034905;28;20053;-75
2021/04/06 12:42:39;;;;;;;3.90;0.70;;;6.70;99.90;;;;;;5034785;28;20026;-75
2021/04/06 12:45:07;;;;;;;3.65;0.52;;;6.60;99.90;;;;;;5034348;28;20030;-74
2021/04/06 12:47:33;;;;;;;2.05;0.73;;;6.40;99.90;;;;;;5034601;28;20033;-75
2021/04/06 12:49:59;;;;;;;7.07;1.48;;;6.40;99.90;;;;;;5033537;28;20017;-75
2021/04/06 12:52:24;;;;;;;2.40;0.80;;;6.70;99.90;;;;;;5033343;28;20021;-75
2021/04/06 12:54:50;;;;;;;3.05;0.77;;;7.50;99.90;;;;;;5034017;28;20048;-75
2021/04/06 12:57:16;;;;;;;10.55;2.72;;;7.90;99.90;;;;;;5034276;28;20044;-74
2021/04/06 12:59:41;;;;;;;28.85;2.42;;;8.20;99.90;;;;;;5034310;28;20458;-75
2021/04/06 13:02:08;;;;;;;11.10;1.60;;;8.10;99.90;;;;;;5034285;28;20426;-75
2021/04/06 13:04:33;;;;;;;14.57;2.17;;;7.70;99.90;;;;;;5033966;28;20029;-75
2021/04/06 13:06:59;;;;;;;21.85;2.55;;;7.80;99.90;;;;;;5034221;28;20116;-75
2021/04/06 13:09:24;;;;;;;16.15;2.42;;;7.60;99.90;;;;;;5034431;28;20135;-75
2021/04/06 13:11:50;;;;;;;17.33;2.55;;;7.40;99.90;;;;;;5033932;28;20159;-75
2021/04/06 13:14:15;;;;;;;20.13;2.85;;;7.00;99.90;;;;;;5033715;28;20367;-75
2021/04/06 13:16:41;;;;;;;18.92;4.88;;;6.60;99.90;;;;;;5034360;28;20390;-75
2021/04/06 13:19:07;;;;;;;8.40;1.80;;;6.30;99.90;;;;;;5034218;28;20389;-75
2021/04/06 13:21:33;;;;;;;14.95;2.47;;;6.50;99.90;;;;;;5033979;28;20025;-75
2021/04/06 13:24:00;;;;;;;17.92;2.92;;;6.50;99.90;;;;;;5033103;28;20064;-75
2021/04/06 13:26:26;;;;;;;20.23;3.90;;;7.50;99.90;;;;;;5032850;28;20055;-75
2021/04/06 13:28:52;;;;;;;25.00;3.55;;;8.00;99.90;;;;;;5034024;28;20022;-75